createdAt,value
2022-11-19T00:00:25.457Z,100210.22
2022-11-19T00:03:33.568Z,100211.97
2022-11-19T00:06:36.230Z,100218.88
2022-11-19T00:09:38.517Z,100207.06
2022-11-19T00:12:57.217Z,100209.78
2022-11-19T00:16:14.494Z,100208.47
2022-11-19T00:19:17.215Z,100205.88
2022-11-19T00:22:19.596Z,100208.03
2022-11-19T00:25:23.417Z,100206.03
2022-11-19T00:28:26.112Z,100209.19
2022-11-19T00:31:31.805Z,100213.50
2022-11-19T00:34:34.884Z,100213.19
2022-11-19T00:37:37.923Z,100214.78
2022-11-19T00:40:40.891Z,100210.47
2022-11-19T00:43:52.653Z,100207.47
2022-11-19T00:46:55.287Z,100206.94
2022-11-19T00:49:57.510Z,100206.06
2022-11-19T00:53:00.261Z,100207.41
2022-11-19T00:56:04.355Z,100204.06
2022-11-19T00:59:06.840Z,100205.69
2022-11-19T01:02:09.555Z,100201.56
2022-11-19T01:05:12.234Z,100198.25
2022-11-19T01:08:14.866Z,100196.38
2022-11-19T01:11:23.427Z,100202.88
2022-11-19T01:14:26.264Z,100197.44
2022-11-19T01:17:29.013Z,100197.06
2022-11-19T01:20:31.823Z,100197.72
2022-11-19T01:23:34.730Z,100191.00
2022-11-19T01:26:40.518Z,100202.81
2022-11-19T01:29:45.320Z,100201.13
2022-11-19T01:32:47.884Z,100199.63
2022-11-19T01:36:01.462Z,100200.81
2022-11-19T01:39:04.251Z,100196.41
2022-11-19T01:42:26.569Z,100206.00
2022-11-19T01:45:31.775Z,100199.34
2022-11-19T01:48:38.208Z,100192.59
2022-11-19T01:51:50.387Z,100202.69
2022-11-19T01:54:55.013Z,100193.25
2022-11-19T01:58:01.302Z,100189.09
2022-11-19T02:01:04.050Z,100173.72
2022-11-19T02:04:08.306Z,100208.16
2022-11-19T02:07:11.142Z,100199.28
2022-11-19T02:10:14.771Z,100197.22
2022-11-19T02:13:26.332Z,100191.00
2022-11-19T02:16:45.278Z,100197.88
2022-11-19T02:20:08.685Z,100190.44
2022-11-19T02:23:26.564Z,100187.66
2022-11-19T02:26:50.829Z,100197.22
2022-11-19T02:29:55.963Z,100198.00
2022-11-19T02:33:36.958Z,100193.19
2022-11-19T02:37:20.073Z,100195.66
2022-11-19T02:40:37.650Z,100195.66
2022-11-19T02:43:42.369Z,100193.16
2022-11-19T02:46:48.407Z,100191.88
2022-11-19T02:49:54.349Z,100181.47
2022-11-19T02:52:57.185Z,100188.00
2022-11-19T02:56:12.413Z,100173.78
2022-11-19T02:59:35.887Z,100188.53
2022-11-19T03:03:01.206Z,100190.25
2022-11-19T03:06:08.076Z,100192.34
2022-11-19T03:09:10.996Z,100194.53
2022-11-19T03:12:34.901Z,100197.78
2022-11-19T03:16:01.449Z,100193.91
2022-11-19T03:19:24.003Z,100198.22
2022-11-19T03:22:30.565Z,100197.69
2022-11-19T03:25:40.263Z,100197.41
2022-11-19T03:28:43.633Z,100197.16
2022-11-19T03:31:53.888Z,100200.16
2022-11-19T03:34:59.488Z,100203.47
2022-11-19T03:38:05.410Z,100203.56
2022-11-19T03:41:08.737Z,100207.88
2022-11-19T03:44:33.780Z,100123.13
2022-11-19T03:47:38.476Z,100202.00
2022-11-19T03:50:48.166Z,100202.53
2022-11-19T03:53:50.961Z,100207.69
2022-11-19T03:56:53.958Z,100208.53
2022-11-19T03:59:56.229Z,100209.53
2022-11-19T04:02:59.061Z,100209.63
2022-11-19T04:06:02.963Z,100207.88
2022-11-19T04:09:05.891Z,100198.78
2022-11-19T04:12:09.470Z,100206.22
2022-11-19T04:15:15.901Z,100202.91
2022-11-19T04:18:23.540Z,100205.47
2022-11-19T04:21:26.398Z,100208.41
2022-11-19T04:24:30.732Z,100205.66
2022-11-19T04:27:33.316Z,100195.19
2022-11-19T04:30:35.893Z,100197.84
2022-11-19T04:33:38.388Z,100202.00
2022-11-19T04:36:42.287Z,100186.53
2022-11-19T04:39:44.879Z,100191.78
2022-11-19T04:42:47.631Z,100189.56
2022-11-19T04:45:49.936Z,100174.13
2022-11-19T04:48:53.040Z,100187.25
2022-11-19T04:51:55.794Z,100183.97
2022-11-19T04:54:58.501Z,100175.72
2022-11-19T04:58:01.192Z,100180.72
2022-11-19T05:01:05.364Z,100177.72
2022-11-19T05:04:07.954Z,100179.91
2022-11-19T05:07:10.477Z,100177.44
2022-11-19T05:10:12.939Z,100163.75
2022-11-19T05:13:15.372Z,100174.03
2022-11-19T05:16:17.740Z,100163.63
2022-11-19T05:19:20.818Z,100169.25
2022-11-19T05:22:23.694Z,100162.28
2022-11-19T05:25:26.641Z,100165.44
2022-11-19T05:28:38.596Z,100163.09
2022-11-19T05:31:42.146Z,100160.44
2022-11-19T05:34:44.943Z,100167.50
2022-11-19T05:37:50.284Z,100167.06
2022-11-19T05:40:57.555Z,100154.75
2022-11-19T05:43:59.989Z,100162.28
2022-11-19T05:47:03.074Z,100166.19
2022-11-19T05:50:07.126Z,100158.56
2022-11-19T05:53:09.635Z,100175.06
2022-11-19T05:56:12.184Z,100159.78
2022-11-19T05:59:15.828Z,100175.72
2022-11-19T06:02:18.300Z,100181.47
2022-11-19T06:05:21.677Z,100175.47
2022-11-19T06:08:24.322Z,100185.22
2022-11-19T06:11:45.521Z,100199.84
2022-11-19T06:14:47.876Z,100181.59
2022-11-19T06:17:50.976Z,100169.50
2022-11-19T06:20:53.496Z,100199.47
2022-11-19T06:23:55.835Z,100199.91
2022-11-19T06:26:58.331Z,100201.81
2022-11-19T06:30:01.484Z,100208.09
2022-11-19T06:33:04.491Z,100205.88
2022-11-19T06:36:07.524Z,100210.94
2022-11-19T06:39:10.308Z,100202.84
2022-11-19T06:42:33.505Z,100203.97
2022-11-19T06:45:36.157Z,100204.25
2022-11-19T06:48:38.940Z,100218.00
2022-11-19T06:51:42.543Z,100211.31
2022-11-19T06:54:44.980Z,100217.22
2022-11-19T06:57:47.329Z,100217.66
2022-11-19T07:00:49.905Z,100224.28
2022-11-19T07:03:53.223Z,100219.59
2022-11-19T07:06:56.001Z,100227.06
2022-11-19T07:09:58.472Z,100224.00
2022-11-19T07:13:02.270Z,100208.66
2022-11-19T07:16:05.162Z,100228.34
2022-11-19T07:19:10.519Z,100217.25
2022-11-19T07:22:14.924Z,100221.50
2022-11-19T07:25:17.947Z,100222.16
2022-11-19T07:28:20.772Z,100220.94
2022-11-19T07:31:31.335Z,100208.28
2022-11-19T07:34:34.482Z,100216.84
2022-11-19T07:37:37.727Z,100223.28
2022-11-19T07:40:40.019Z,100218.63
2022-11-19T07:43:42.482Z,100223.63
2022-11-19T07:46:45.527Z,100202.13
2022-11-19T07:49:48.193Z,100226.59
2022-11-19T07:52:51.024Z,100218.28
2022-11-19T07:55:56.260Z,100228.94
2022-11-19T07:59:01.939Z,100212.00
2022-11-19T08:02:04.702Z,100220.88
2022-11-19T08:05:07.302Z,100232.22
2022-11-19T08:08:10.764Z,100225.78
2022-11-19T08:11:15.921Z,100200.41
2022-11-19T08:14:19.752Z,100215.88
2022-11-19T08:17:40.979Z,100224.63
2022-11-19T08:20:45.634Z,100228.94
2022-11-19T08:23:47.943Z,100227.81
2022-11-19T08:26:51.079Z,100235.00
2022-11-19T08:29:53.746Z,100229.09
2022-11-19T08:32:56.125Z,100226.91
2022-11-19T08:35:58.716Z,100224.09
2022-11-19T08:39:02.554Z,100232.06
2022-11-19T08:42:24.635Z,100238.47
2022-11-19T08:45:28.721Z,100229.44
2022-11-19T08:48:31.311Z,100235.00
2022-11-19T08:51:35.060Z,100240.28
2022-11-19T08:54:37.422Z,100240.53
2022-11-19T08:57:39.857Z,100235.25
2022-11-19T09:00:42.576Z,100239.53
2022-11-19T09:03:45.333Z,100234.63
2022-11-19T09:06:47.662Z,100238.59
2022-11-19T09:09:50.312Z,100238.00
2022-11-19T09:12:53.387Z,100242.97
2022-11-19T09:15:56.200Z,100243.41
2022-11-19T09:19:01.607Z,100244.63
2022-11-19T09:22:04.483Z,100245.03
2022-11-19T09:25:09.672Z,100240.31
2022-11-19T09:28:12.546Z,100227.97
2022-11-19T09:31:19.369Z,100238.59
2022-11-19T09:34:22.633Z,100237.03
2022-11-19T09:37:25.630Z,100230.34
2022-11-19T09:40:28.544Z,100238.75
2022-11-19T09:43:59.956Z,100238.31
2022-11-19T09:47:48.280Z,100230.81
2022-11-19T09:51:00.236Z,100223.56
2022-11-19T09:54:07.951Z,100232.75
2022-11-19T09:57:15.569Z,100223.75
2022-11-19T10:00:22.259Z,100225.72
2022-11-19T10:03:32.863Z,100223.28
2022-11-19T10:06:47.035Z,100220.09
2022-11-19T10:09:56.869Z,100226.84
2022-11-19T10:13:45.234Z,100226.09
2022-11-19T10:16:52.979Z,100228.41
2022-11-19T10:20:19.473Z,100220.50
2022-11-19T10:23:28.406Z,100226.22
2022-11-19T10:26:40.969Z,100216.06
2022-11-19T10:29:43.397Z,100219.88
2022-11-19T10:33:06.013Z,100224.09
2022-11-19T10:36:11.617Z,100218.44
2022-11-19T10:39:32.127Z,100221.13
2022-11-19T10:42:43.294Z,100215.66
2022-11-19T10:45:46.626Z,100214.63
2022-11-19T10:48:52.950Z,100216.94
2022-11-19T10:51:55.331Z,100212.38
2022-11-19T10:55:03.581Z,100202.53
2022-11-19T10:58:16.272Z,100208.22
2022-11-19T11:01:39.506Z,100203.25
2022-11-19T11:05:20.708Z,100205.28
2022-11-19T11:08:23.721Z,100201.72
2022-11-19T11:11:51.290Z,100197.06
2022-11-19T11:14:54.477Z,100196.81
2022-11-19T11:18:07.827Z,100196.56
2022-11-19T11:21:21.680Z,100199.22
2022-11-19T11:24:33.299Z,100196.91
2022-11-19T11:27:36.341Z,100191.97
2022-11-19T11:30:39.567Z,100187.09
2022-11-19T11:33:57.036Z,100185.28
2022-11-19T11:37:05.366Z,100179.19
2022-11-19T11:40:14.814Z,100182.97
2022-11-19T11:43:19.195Z,100181.41
2022-11-19T11:46:21.664Z,100179.34
2022-11-19T11:49:38.564Z,100179.34
2022-11-19T11:52:46.376Z,100167.84
2022-11-19T11:55:57.621Z,100177.59
2022-11-19T11:59:16.383Z,100179.03
2022-11-19T12:02:33.004Z,100177.19
2022-11-19T12:05:50.763Z,100178.44
2022-11-19T12:09:31.246Z,100151.31
2022-11-19T12:12:39.875Z,100172.78
2022-11-19T12:16:08.688Z,100168.44
2022-11-19T12:19:22.959Z,100170.34
2022-11-19T12:22:32.211Z,100172.47
2022-11-19T12:25:42.176Z,100162.97
2022-11-19T12:29:13.587Z,100172.22
2022-11-19T12:32:50.912Z,100158.47
2022-11-19T12:36:18.031Z,100159.25
2022-11-19T13:23:06.469Z,100186.94
2022-11-19T13:26:11.897Z,100188.59
2022-11-19T13:29:28.698Z,100192.13
2022-11-19T13:32:42.918Z,100198.06
2022-11-19T13:36:08.925Z,100187.31
2022-11-19T13:39:27.445Z,100181.91
2022-11-19T13:43:04.213Z,100187.97
2022-11-19T13:46:25.683Z,100192.97
2022-11-19T13:49:32.879Z,100189.19
2022-11-19T13:53:10.785Z,100193.56
2022-11-19T13:56:15.676Z,100196.97
2022-11-19T13:59:27.233Z,100193.50
2022-11-19T14:03:08.243Z,100202.38
2022-11-19T14:06:23.032Z,100200.72
2022-11-19T14:09:50.870Z,100207.13
2022-11-19T14:12:56.635Z,100200.97
2022-11-19T14:16:42.466Z,100199.34
2022-11-19T14:20:16.212Z,100206.81
2022-11-19T14:23:56.392Z,100200.28
2022-11-19T14:27:17.427Z,100200.72
2022-11-19T14:30:21.855Z,100193.28
2022-11-19T14:33:58.289Z,100193.63
2022-11-19T14:37:17.052Z,100190.81
2022-11-19T14:40:23.650Z,100195.75
2022-11-19T14:43:45.656Z,100203.13
2022-11-19T14:46:49.597Z,100196.97
2022-11-19T14:49:56.086Z,100191.97
2022-11-19T14:53:00.166Z,100193.75
2022-11-19T14:56:11.915Z,100199.72
2022-11-19T14:59:17.149Z,100195.50
2022-11-19T15:02:38.158Z,100197.34
2022-11-19T15:05:42.599Z,100195.47
2022-11-19T15:09:00.945Z,100182.44
2022-11-19T15:12:04.290Z,100188.59
2022-11-19T15:15:25.205Z,100182.03
2022-11-19T15:18:45.653Z,100182.84
2022-11-19T15:22:19.713Z,100181.22
2022-11-19T15:25:25.104Z,100184.34
2022-11-19T15:28:55.568Z,100184.31
2022-11-19T15:32:09.067Z,100189.41
2022-11-19T15:35:26.591Z,100182.47
2022-11-19T15:38:54.743Z,100188.31
2022-11-19T15:42:02.334Z,100180.06
2022-11-19T15:45:18.508Z,100188.84
2022-11-19T15:48:23.736Z,100186.69
2022-11-19T15:51:27.114Z,100180.84
2022-11-19T15:54:30.571Z,100189.28
2022-11-19T15:57:33.064Z,100186.69
2022-11-19T16:00:47.269Z,100193.16
2022-11-19T16:03:53.642Z,100194.19
2022-11-19T16:06:56.410Z,100175.25
2022-11-19T16:09:59.443Z,100191.75
2022-11-19T16:13:22.523Z,100187.19
2022-11-19T16:16:47.296Z,100178.97
2022-11-19T16:20:19.366Z,100188.06
2022-11-19T16:23:23.862Z,100191.41
2022-11-19T16:26:26.718Z,100176.44
2022-11-19T16:29:29.820Z,100181.16
2022-11-19T16:32:32.884Z,100123.19
2022-11-19T16:35:35.416Z,100188.31
2022-11-19T16:38:39.254Z,100177.41
2022-11-19T16:42:00.449Z,100187.97
2022-11-19T16:45:17.668Z,100184.59
2022-11-19T16:48:49.308Z,100192.47
2022-11-19T16:51:53.596Z,100184.00
2022-11-19T16:54:56.573Z,100188.00
2022-11-19T16:58:01.620Z,100197.75
2022-11-19T17:01:04.348Z,100192.16
2022-11-19T17:04:08.835Z,100193.88
2022-11-19T17:07:14.849Z,100194.00
2022-11-19T17:10:22.702Z,100192.84
2022-11-19T17:13:31.388Z,100200.34
2022-11-19T17:16:35.443Z,100194.50
2022-11-19T17:19:37.965Z,100200.22
2022-11-19T17:22:41.145Z,100190.81
2022-11-19T17:26:03.715Z,100190.31
2022-11-19T17:29:11.277Z,100182.69
2022-11-19T17:32:13.778Z,100184.72
2022-11-19T17:35:42.116Z,100182.16
2022-11-19T17:38:44.750Z,100178.81
2022-11-19T17:42:06.399Z,100190.63
2022-11-19T17:45:11.154Z,100182.38
2022-11-19T17:48:25.598Z,100176.41
2022-11-19T17:51:27.961Z,100189.09
2022-11-19T17:54:34.639Z,100158.19
2022-11-19T17:57:42.314Z,100184.06
2022-11-19T18:00:45.188Z,100188.41
2022-11-19T18:03:47.680Z,100184.84
2022-11-19T18:06:50.346Z,100197.25
2022-11-19T18:09:53.030Z,100187.59
2022-11-19T18:12:55.540Z,100197.66
2022-11-19T18:15:58.129Z,100196.06
2022-11-19T18:19:00.862Z,100201.31
2022-11-19T18:22:03.496Z,100202.66
2022-11-19T18:25:18.068Z,100190.59
2022-11-19T18:28:20.583Z,100199.50
2022-11-19T18:31:29.920Z,100194.19
2022-11-19T18:34:32.977Z,100198.59
2022-11-19T18:37:35.432Z,100204.31
2022-11-19T18:40:38.086Z,100209.38
2022-11-19T18:43:59.336Z,100210.75
2022-11-19T18:47:04.147Z,100209.03
2022-11-19T18:50:07.011Z,100198.94
2022-11-19T18:53:11.720Z,100209.47
2022-11-19T18:56:18.398Z,100207.63
2022-11-19T18:59:21.258Z,100198.22
2022-11-19T19:02:24.326Z,100208.41
2022-11-19T19:05:27.000Z,100192.97
2022-11-19T19:08:31.328Z,100205.22
2022-11-19T19:11:52.540Z,100213.88
2022-11-19T19:14:56.302Z,100215.34
2022-11-19T19:18:01.398Z,100220.59
2022-11-19T19:21:14.882Z,100214.16
2022-11-19T19:24:17.988Z,100226.09
2022-11-19T19:27:20.443Z,100233.66
2022-11-19T19:30:23.014Z,100228.81
2022-11-19T19:33:25.635Z,100225.66
2022-11-19T19:36:28.503Z,100224.47
2022-11-19T19:39:30.799Z,100224.34
2022-11-19T19:42:37.151Z,100230.66
2022-11-19T19:45:42.952Z,100234.19
2022-11-19T19:48:47.626Z,100235.16
2022-11-19T19:51:51.346Z,100225.91
2022-11-19T19:54:53.987Z,100246.22
2022-11-19T19:57:56.902Z,100237.97
2022-11-19T20:01:06.113Z,100240.47
2022-11-19T20:04:10.509Z,100242.09
2022-11-19T20:07:13.647Z,100233.94
2022-11-19T20:10:16.497Z,100244.50
2022-11-19T20:13:28.358Z,100240.31
2022-11-19T20:16:33.147Z,100242.16
2022-11-19T20:19:36.311Z,100249.03
2022-11-19T20:22:38.969Z,100252.50
2022-11-19T20:25:41.569Z,100252.06
2022-11-19T20:28:44.661Z,100227.47
2022-11-19T20:31:49.151Z,100252.47
2022-11-19T20:34:52.013Z,100257.50
2022-11-19T20:38:00.798Z,100254.97
2022-11-19T20:41:29.010Z,100258.31
2022-11-19T20:44:31.632Z,100241.91
2022-11-19T20:47:34.994Z,100250.44
2022-11-19T20:50:37.713Z,100252.59
2022-11-19T20:53:41.241Z,100243.25
2022-11-19T20:56:43.859Z,100238.22
2022-11-19T20:59:47.075Z,100249.41
2022-11-19T21:02:49.516Z,100248.47
2022-11-19T21:06:00.281Z,100243.34
2022-11-19T21:09:04.205Z,100250.53
2022-11-19T21:12:07.569Z,100250.78
2022-11-19T21:15:10.469Z,100255.00
2022-11-19T21:18:13.738Z,100245.81
2022-11-19T21:21:18.038Z,100254.09
2022-11-19T21:24:20.896Z,100236.97
2022-11-19T21:27:23.380Z,100245.06
2022-11-19T21:30:25.940Z,100251.09
2022-11-19T21:33:28.792Z,100244.56
2022-11-19T21:36:35.077Z,100248.38
2022-11-19T21:39:38.283Z,100250.53
2022-11-19T21:42:42.175Z,100249.00
2022-11-19T21:45:45.868Z,100233.38
2022-11-19T21:48:48.452Z,100233.28
2022-11-19T21:51:51.392Z,100238.41
2022-11-19T21:54:56.813Z,100238.63
2022-11-19T21:58:00.207Z,100235.75
2022-11-19T22:01:04.846Z,100231.22
2022-11-19T22:04:07.728Z,100237.19
2022-11-19T22:07:10.796Z,100224.50
2022-11-19T22:10:14.421Z,100180.56
2022-11-19T22:13:17.075Z,100243.16
2022-11-19T22:16:20.657Z,100239.66
2022-11-19T22:19:23.568Z,100232.13
2022-11-19T22:22:27.032Z,100233.78
2022-11-19T22:25:30.156Z,100239.44
2022-11-19T22:28:32.848Z,100230.06
2022-11-19T22:31:35.382Z,100245.28
2022-11-19T22:34:38.506Z,100240.41
2022-11-19T22:37:41.295Z,100243.97
2022-11-19T22:40:43.751Z,100253.88
2022-11-19T22:43:46.657Z,100240.09
2022-11-19T22:46:49.516Z,100253.19
2022-11-19T22:49:51.987Z,100243.81
2022-11-19T22:52:54.622Z,100232.91
2022-11-19T22:56:01.998Z,100231.06
2022-11-19T22:59:04.891Z,100233.47
2022-11-19T23:02:07.222Z,100233.47
2022-11-19T23:05:09.781Z,100235.09
2022-11-19T23:08:12.204Z,100228.38
2022-11-19T23:11:16.705Z,100221.72
2022-11-19T23:14:20.321Z,100223.28
2022-11-19T23:17:22.823Z,100225.50
2022-11-19T23:20:25.516Z,100215.28
2022-11-19T23:23:28.729Z,100220.75
2022-11-19T23:26:32.647Z,100227.41
2022-11-19T23:29:35.590Z,100216.94
2022-11-19T23:32:39.475Z,100218.66
2022-11-19T23:35:42.093Z,100223.81
2022-11-19T23:38:45.589Z,100213.13
2022-11-19T23:41:49.020Z,100218.31
2022-11-19T23:44:51.706Z,100210.91
2022-11-19T23:47:57.265Z,100213.38
2022-11-19T23:51:07.530Z,100205.56
2022-11-19T23:54:14.986Z,100188.63
2022-11-19T23:57:17.854Z,100210.56
